createdAt,value
2019-05-02T00:02:05.742Z,46.00
2019-05-02T00:04:35.476Z,45.60
2019-05-02T00:07:09.730Z,44.67
2019-05-02T00:09:47.441Z,46.80
2019-05-02T00:12:15.465Z,44.17
2019-05-02T00:14:45.439Z,47.23
2019-05-02T00:17:15.241Z,46.93
2019-05-02T00:19:45.186Z,46.43
2019-05-02T00:22:17.313Z,46.47
2019-05-02T00:24:47.969Z,46.93
2019-05-02T00:27:17.243Z,47.63
2019-05-02T00:29:46.477Z,44.60
2019-05-02T00:32:18.284Z,44.90
2019-05-02T00:34:46.743Z,46.83
2019-05-02T00:37:18.794Z,45.77
2019-05-02T00:39:49.234Z,47.87
2019-05-02T00:42:22.400Z,46.73
2019-05-02T00:44:48.946Z,46.17
2019-05-02T00:47:37.127Z,47.30
2019-05-02T00:50:11.307Z,46.67
2019-05-02T00:52:38.182Z,48.00
2019-05-02T00:55:07.551Z,46.80
2019-05-02T00:57:36.774Z,48.43
2019-05-02T01:00:07.102Z,48.67
2019-05-02T01:02:42.683Z,50.27
2019-05-02T01:05:11.950Z,50.80
2019-05-02T01:07:41.186Z,48.37
2019-05-02T01:10:11.654Z,47.57
2019-05-02T01:12:44.467Z,49.90
2019-05-02T01:15:12.438Z,48.63
2019-05-02T01:17:41.703Z,49.50
2019-05-02T01:20:11.062Z,49.30
2019-05-02T01:22:40.342Z,50.20
2019-05-02T01:25:15.085Z,50.63
2019-05-02T01:28:02.786Z,49.90
2019-05-02T01:30:49.662Z,50.13
2019-05-02T01:33:43.570Z,49.73
2019-05-02T01:36:26.527Z,49.00
2019-05-02T01:38:55.820Z,50.87
2019-05-02T01:41:29.112Z,50.43
2019-05-02T01:43:59.993Z,51.37
2019-05-02T01:46:27.048Z,51.57
2019-05-02T01:48:56.324Z,51.00
2019-05-02T01:51:25.594Z,51.20
2019-05-02T01:53:54.857Z,52.83
2019-05-02T01:56:24.090Z,51.57
2019-05-02T01:58:57.737Z,52.07
2019-05-02T02:01:24.366Z,51.83
2019-05-02T02:03:53.613Z,50.10
2019-05-02T02:06:22.939Z,53.37
2019-05-02T02:08:52.166Z,52.93
2019-05-02T02:11:21.429Z,51.07
2019-05-02T02:13:50.694Z,52.40
2019-05-02T02:16:19.978Z,50.30
2019-05-02T02:18:59.100Z,49.83
2019-05-02T02:21:34.471Z,53.07
2019-05-02T02:24:08.011Z,52.23
2019-05-02T02:26:37.255Z,50.90
2019-05-02T02:29:07.961Z,51.67
2019-05-02T02:31:39.878Z,51.47
2019-05-02T02:34:08.510Z,50.07
2019-05-02T02:36:37.786Z,52.90
2019-05-02T02:39:14.160Z,52.13
2019-05-02T02:41:38.915Z,60.63
2019-05-02T02:44:25.966Z,53.73
2019-05-02T02:46:55.467Z,55.70
2019-05-02T02:49:24.848Z,54.27
2019-05-02T02:51:58.016Z,54.03
2019-05-02T02:54:25.204Z,56.70
2019-05-02T02:56:54.486Z,56.00
2019-05-02T02:59:26.249Z,57.00
2019-05-02T03:01:54.711Z,58.60
2019-05-02T03:04:23.986Z,57.60
2019-05-02T03:06:53.264Z,57.70
2019-05-02T03:09:26.703Z,59.50
2019-05-02T03:12:11.067Z,60.83
2019-05-02T03:14:47.094Z,54.50
2019-05-02T03:17:20.315Z,58.40
2019-05-02T03:19:47.847Z,56.80
2019-05-02T03:22:17.426Z,57.07
2019-05-02T03:24:47.614Z,58.03
2019-05-02T03:27:17.183Z,56.07
2019-05-02T03:29:46.456Z,59.10
2019-05-02T03:32:30.160Z,56.27
2019-05-02T03:34:52.384Z,57.63
2019-05-02T03:37:17.931Z,57.57
2019-05-02T03:39:49.538Z,57.43
2019-05-02T03:42:18.815Z,55.60
2019-05-02T03:44:54.597Z,56.50
2019-05-02T03:47:19.171Z,55.77
2019-05-02T03:49:49.405Z,56.60
2019-05-02T03:52:19.423Z,58.30
2019-05-02T03:54:52.060Z,58.07
2019-05-02T03:57:32.279Z,56.27
2019-05-02T03:59:52.166Z,54.57
2019-05-02T04:02:21.888Z,57.33
2019-05-02T04:04:54.410Z,55.37
2019-05-02T04:07:22.342Z,54.93
2019-05-02T04:09:52.005Z,58.80
2019-05-02T04:12:22.016Z,57.17
2019-05-02T04:14:55.298Z,58.60
2019-05-02T04:17:28.558Z,54.00
2019-05-02T04:19:53.649Z,56.43
2019-05-02T04:22:23.182Z,55.17
2019-05-02T04:24:56.870Z,55.07
2019-05-02T04:27:27.805Z,54.97
2019-05-02T04:29:54.667Z,56.90
2019-05-02T04:32:23.955Z,58.17
2019-05-02T04:34:55.810Z,56.27
2019-05-02T04:37:24.429Z,58.23
2019-05-02T04:39:57.815Z,58.33
2019-05-02T04:42:24.623Z,56.63
2019-05-02T04:45:13.949Z,55.47
2019-05-02T04:47:24.859Z,54.10
2019-05-02T04:49:54.120Z,53.80
2019-05-02T04:52:23.396Z,57.10
2019-05-02T04:54:52.904Z,56.27
2019-05-02T04:57:29.790Z,56.70
2019-05-02T05:00:02.382Z,55.30
2019-05-02T05:02:34.661Z,57.50
2019-05-02T05:04:55.088Z,57.50
2019-05-02T05:07:24.355Z,56.13
2019-05-02T05:10:00.871Z,57.93
2019-05-02T05:12:24.599Z,60.87
2019-05-02T05:14:53.855Z,57.13
2019-05-02T05:17:25.216Z,56.83
2019-05-02T05:19:54.224Z,56.87
2019-05-02T05:22:23.510Z,57.70
2019-05-02T05:25:02.080Z,56.37
2019-05-02T05:27:31.348Z,58.50
2019-05-02T05:30:08.397Z,59.43
2019-05-02T05:32:31.608Z,61.63
2019-05-02T05:35:03.390Z,60.97
2019-05-02T05:37:31.877Z,58.50
2019-05-02T05:40:01.110Z,58.97
2019-05-02T05:42:33.330Z,59.17
2019-05-02T05:45:03.685Z,62.20
2019-05-02T05:47:32.614Z,60.10
2019-05-02T05:50:01.910Z,59.83
2019-05-02T05:52:33.207Z,60.57
2019-05-02T05:55:04.770Z,60.20
2019-05-02T05:57:33.267Z,66.33
2019-05-02T06:00:11.933Z,61.33
2019-05-02T06:02:52.345Z,59.90
2019-05-02T06:05:07.903Z,60.87
2019-05-02T06:07:41.759Z,59.60
2019-05-02T06:10:09.948Z,57.20
2019-05-02T06:12:39.525Z,58.43
2019-05-02T06:15:09.126Z,55.30
2019-05-02T06:17:38.402Z,61.27
2019-05-02T06:20:08.235Z,57.73
2019-05-02T06:22:37.503Z,57.23
2019-05-02T06:25:10.237Z,55.77
2019-05-02T06:27:39.819Z,55.70
2019-05-02T06:30:09.590Z,57.63
2019-05-02T06:32:38.922Z,55.70
2019-05-02T06:35:08.466Z,55.20
2019-05-02T06:37:40.437Z,58.33
2019-05-02T06:40:09.458Z,57.47
2019-05-02T06:42:38.966Z,54.43
2019-05-02T06:45:09.078Z,56.53
2019-05-02T06:47:41.654Z,57.67
2019-05-02T06:50:09.788Z,54.60
2019-05-02T06:52:39.055Z,54.57
2019-05-02T06:55:08.568Z,56.17
2019-05-02T06:57:37.917Z,54.77
2019-05-02T07:00:08.113Z,54.83
2019-05-02T07:02:37.403Z,54.50
2019-05-02T07:05:07.148Z,52.53
2019-05-02T07:07:37.266Z,53.37
2019-05-02T07:10:07.592Z,53.23
2019-05-02T07:12:36.987Z,51.00
2019-05-02T07:15:10.680Z,53.57
2019-05-02T07:17:44.963Z,51.57
2019-05-02T07:20:16.406Z,52.73
2019-05-02T07:22:45.864Z,52.23
2019-05-02T07:25:17.380Z,52.60
2019-05-02T07:27:46.651Z,52.40
2019-05-02T07:30:17.259Z,49.40
2019-05-02T07:32:46.622Z,49.47
2019-05-02T07:35:19.163Z,51.80
2019-05-02T07:37:48.844Z,49.53
2019-05-02T07:40:18.869Z,50.63
2019-05-02T07:42:48.223Z,50.00
2019-05-02T07:45:17.664Z,51.07
2019-05-02T07:47:46.915Z,49.10
2019-05-02T07:50:16.294Z,50.43
2019-05-02T07:52:45.625Z,52.03
2019-05-02T07:55:15.229Z,49.13
2019-05-02T07:57:44.465Z,47.53
2019-05-02T08:00:15.918Z,49.03
2019-05-02T08:02:45.247Z,46.80
2019-05-02T08:05:21.673Z,47.27
2019-05-02T08:07:47.222Z,46.53
2019-05-02T08:10:22.084Z,42.07
2019-05-02T08:12:49.401Z,43.07
2019-05-02T08:15:18.726Z,38.80
2019-05-02T08:17:53.106Z,38.50
2019-05-02T08:20:19.830Z,39.07
2019-05-02T08:22:51.274Z,37.27
2019-05-02T08:25:20.610Z,37.20
2019-05-02T08:27:58.421Z,37.30
2019-05-02T08:30:35.352Z,35.97
2019-05-02T08:33:02.386Z,34.73
2019-05-02T08:35:31.692Z,35.63
2019-05-02T08:38:01.073Z,38.47
2019-05-02T08:40:30.330Z,38.57
2019-05-02T08:43:03.690Z,38.43
2019-05-02T08:45:32.993Z,38.87
2019-05-02T08:48:05.266Z,35.97
2019-05-02T08:50:33.491Z,37.97
2019-05-02T08:53:02.858Z,36.67
2019-05-02T08:55:32.138Z,38.03
2019-05-02T08:58:06.578Z,38.40
2019-05-02T09:00:37.462Z,37.03
2019-05-02T09:03:04.771Z,42.13
2019-05-02T09:05:36.918Z,39.05
2019-05-02T09:08:09.179Z,38.80
2019-05-02T09:10:37.196Z,36.00
2019-05-02T09:13:07.717Z,39.43
2019-05-02T09:15:40.231Z,36.00
2019-05-02T09:18:08.019Z,39.70
2019-05-02T09:20:37.295Z,37.73
2019-05-02T09:23:06.567Z,36.80
2019-05-02T09:25:35.887Z,40.43
2019-05-02T09:28:05.339Z,37.07
2019-05-02T09:30:34.614Z,38.40
2019-05-02T09:33:06.595Z,38.73
2019-05-02T09:35:34.972Z,36.93
2019-05-02T09:38:04.345Z,35.13
2019-05-02T09:40:33.625Z,36.70
2019-05-02T09:43:04.818Z,35.73
2019-05-02T09:45:37.377Z,37.73
2019-05-02T09:48:08.103Z,37.33
2019-05-02T09:50:38.504Z,36.10
2019-05-02T09:53:13.043Z,34.30
2019-05-02T09:55:42.361Z,35.37
2019-05-02T09:58:10.358Z,35.43
2019-05-02T10:01:06.211Z,36.40
2019-05-02T10:03:35.520Z,35.30
2019-05-02T10:06:08.361Z,34.83
2019-05-02T10:08:38.407Z,37.10
2019-05-02T10:11:07.272Z,36.20
2019-05-02T10:13:36.530Z,34.80
2019-05-02T10:16:06.151Z,35.43
2019-05-02T10:18:35.448Z,36.60
2019-05-02T10:21:07.853Z,34.40
2019-05-02T10:23:35.860Z,35.50
2019-05-02T10:26:05.245Z,34.70
2019-05-02T10:28:34.546Z,34.03
2019-05-02T10:31:03.848Z,36.93
2019-05-02T10:33:37.504Z,35.30
2019-05-02T10:36:04.551Z,34.23
2019-05-02T10:38:33.815Z,33.80
2019-05-02T10:41:04.731Z,34.53
2019-05-02T10:43:34.244Z,31.00
2019-05-02T10:46:12.671Z,33.03
2019-05-02T10:48:47.859Z,32.13
2019-05-02T10:51:34.320Z,32.27
2019-05-02T10:54:07.412Z,33.27
2019-05-02T10:56:37.284Z,31.70
2019-05-02T10:59:07.171Z,33.80
2019-05-02T11:01:52.107Z,32.00
2019-05-02T11:04:22.479Z,29.23
2019-05-02T11:06:52.182Z,30.73
2019-05-02T11:09:22.479Z,31.67
2019-05-02T11:11:52.465Z,30.73
2019-05-02T11:14:42.073Z,30.43
2019-05-02T11:17:22.693Z,30.57
2019-05-02T11:19:58.346Z,32.63
2019-05-02T11:22:27.665Z,32.47
2019-05-02T11:24:56.950Z,31.00
2019-05-02T11:27:26.206Z,29.97
2019-05-02T11:29:55.525Z,29.33
2019-05-02T11:32:24.799Z,29.60
2019-05-02T11:34:54.063Z,28.93
2019-05-02T11:37:23.355Z,29.07
2019-05-02T11:39:59.002Z,29.20
2019-05-02T11:42:27.251Z,29.33
2019-05-02T11:44:54.631Z,28.97
2019-05-02T11:47:26.628Z,27.90
2019-05-02T11:49:55.991Z,28.63
2019-05-02T11:52:27.461Z,28.98
2019-05-02T11:54:56.538Z,27.80
2019-05-02T11:57:28.649Z,26.67
2019-05-02T11:59:59.435Z,24.23
2019-05-02T12:02:58.113Z,23.47
2019-05-02T12:05:35.649Z,22.60
2019-05-02T12:08:07.848Z,22.53
2019-05-02T12:10:36.775Z,22.03
2019-05-02T12:13:10.694Z,22.17
2019-05-02T12:15:37.468Z,20.00
2019-05-02T12:18:06.754Z,23.00
2019-05-02T12:20:36.863Z,20.37
2019-05-02T12:23:09.022Z,20.93
2019-05-02T12:25:37.430Z,21.57
2019-05-02T12:28:07.723Z,21.87
2019-05-02T12:30:37.906Z,22.03
2019-05-02T12:33:07.326Z,23.20
2019-05-02T12:35:36.631Z,22.73
2019-05-02T12:38:05.967Z,22.27
2019-05-02T12:40:35.245Z,23.23
2019-05-02T12:43:04.617Z,21.20
2019-05-02T12:45:33.910Z,23.85
2019-05-02T12:48:03.218Z,20.53
2019-05-02T12:50:32.555Z,19.50
2019-05-02T12:53:02.925Z,19.03
2019-05-02T12:55:32.657Z,16.73
2019-05-02T12:58:03.114Z,16.40
2019-05-02T13:00:32.671Z,18.70
2019-05-02T13:03:11.618Z,18.13
2019-05-02T13:05:42.640Z,16.50
2019-05-02T13:08:12.408Z,17.57
2019-05-02T13:11:02.169Z,14.53
2019-05-02T13:13:32.631Z,15.73
2019-05-02T13:16:03.762Z,13.33
2019-05-02T13:18:37.151Z,12.70
2019-05-02T13:21:08.110Z,12.63
2019-05-02T13:24:13.291Z,13.73
2019-05-02T13:26:39.319Z,11.87
2019-05-02T13:29:08.621Z,13.47
2019-05-02T13:31:44.224Z,13.37
2019-05-02T13:34:32.038Z,13.90
2019-05-02T13:37:02.843Z,14.60
2019-05-02T13:39:43.701Z,15.40
2019-05-02T13:42:13.078Z,14.63
2019-05-02T13:44:52.665Z,14.47
2019-05-02T13:47:22.840Z,12.93
2019-05-02T13:49:56.816Z,11.23
2019-05-02T13:52:23.486Z,10.93
2019-05-02T13:54:53.122Z,10.57
2019-05-02T13:57:22.500Z,10.77
2019-05-02T13:59:52.567Z,12.27
2019-05-02T14:02:42.673Z,11.83
2019-05-02T14:05:13.383Z,11.43
2019-05-02T14:07:48.407Z,11.40
2019-05-02T14:10:23.390Z,11.80
2019-05-02T14:12:56.469Z,11.03
2019-05-02T14:15:29.242Z,11.87
2019-05-02T14:17:58.495Z,12.13
2019-05-02T14:20:27.774Z,11.63
2019-05-02T14:22:57.082Z,12.23
2019-05-02T14:25:26.385Z,12.03
2019-05-02T14:27:55.857Z,12.27
2019-05-02T14:30:36.237Z,13.83
2019-05-02T14:33:02.328Z,13.93
2019-05-02T14:35:36.257Z,14.67
2019-05-02T14:38:08.983Z,13.80
2019-05-02T14:40:58.505Z,13.03
2019-05-02T14:43:47.827Z,13.10
2019-05-02T14:46:18.015Z,14.30
2019-05-02T14:48:48.403Z,15.27
2019-05-02T14:51:22.999Z,13.87
2019-05-02T14:53:48.704Z,13.60
2019-05-02T14:56:26.332Z,15.20
2019-05-02T14:58:55.623Z,14.40
2019-05-02T15:01:26.191Z,14.07
2019-05-02T15:03:58.166Z,14.43
2019-05-02T15:06:26.736Z,14.93
2019-05-02T15:08:56.015Z,13.70
2019-05-02T15:11:30.910Z,15.00
2019-05-02T15:13:56.408Z,16.07
2019-05-02T15:16:39.344Z,15.30
2019-05-02T15:18:57.201Z,15.87
2019-05-02T15:21:42.202Z,15.97
2019-05-02T15:24:11.999Z,16.50
2019-05-02T15:26:41.918Z,15.87
2019-05-02T15:29:19.219Z,16.70
2019-05-02T15:31:47.826Z,15.13
2019-05-02T15:34:35.578Z,15.73
2019-05-02T15:37:04.457Z,16.27
2019-05-02T15:42:04.772Z,15.17
2019-05-02T15:44:34.082Z,18.20
2019-05-02T15:47:06.796Z,18.07
2019-05-02T15:49:45.849Z,20.53
2019-05-02T15:52:18.877Z,18.67
2019-05-02T15:54:55.417Z,21.40
2019-05-02T15:57:22.751Z,22.13
2019-05-02T15:59:51.655Z,24.43
2019-05-02T16:02:25.258Z,22.13
2019-05-02T16:04:57.053Z,24.70
2019-05-02T16:07:24.246Z,23.77
2019-05-02T16:09:59.358Z,22.27
2019-05-02T16:12:27.160Z,27.13
2019-05-02T16:14:55.603Z,26.07
2019-05-02T16:17:28.544Z,29.20
2019-05-02T16:20:07.589Z,33.13
2019-05-02T16:22:38.329Z,33.97
2019-05-02T16:25:05.686Z,36.37
2019-05-02T16:27:48.003Z,38.23
2019-05-02T16:30:22.315Z,33.07
2019-05-02T16:32:55.009Z,34.50
2019-05-02T16:35:25.240Z,31.93
2019-05-02T16:37:55.961Z,33.93
2019-05-02T16:40:29.601Z,31.60
2019-05-02T16:42:57.177Z,32.83
2019-05-02T16:45:26.730Z,32.20
2019-05-02T16:48:00.661Z,31.13
2019-05-02T16:50:31.885Z,30.40
2019-05-02T16:52:58.462Z,26.63
2019-05-02T16:55:27.850Z,26.77
2019-05-02T16:58:05.210Z,26.30
2019-05-02T17:00:28.651Z,23.07
2019-05-02T17:02:57.997Z,20.93
2019-05-02T17:05:27.329Z,19.80
2019-05-02T17:08:20.219Z,18.73
2019-05-02T17:10:57.056Z,17.30
2019-05-02T17:13:27.322Z,17.60
2019-05-02T17:15:57.503Z,16.27
2019-05-02T17:18:26.852Z,15.83
2019-05-02T17:20:56.928Z,18.10
2019-05-02T17:23:26.591Z,15.20
2019-05-02T17:25:55.928Z,13.97
2019-05-02T17:28:25.258Z,14.23
2019-05-02T17:30:54.537Z,13.90
2019-05-02T17:33:23.857Z,14.70
2019-05-02T17:35:54.309Z,14.23
2019-05-02T17:38:28.929Z,15.80
2019-05-02T17:40:59.421Z,16.33
2019-05-02T17:43:26.986Z,17.15
2019-05-02T17:45:56.550Z,16.90
2019-05-02T17:48:26.031Z,14.00
2019-05-02T17:51:33.875Z,16.20
2019-05-02T17:54:03.657Z,17.77
2019-05-02T17:56:33.048Z,16.40
2019-05-02T17:59:21.497Z,17.57
2019-05-02T18:01:52.453Z,15.03
2019-05-02T18:04:21.954Z,15.90
2019-05-02T18:06:54.897Z,15.87
2019-05-02T18:09:26.324Z,14.83
2019-05-02T18:11:53.497Z,14.70
2019-05-02T18:14:24.051Z,16.47
2019-05-02T18:16:55.614Z,14.90
2019-05-02T18:19:24.824Z,16.63
2019-05-02T18:21:58.061Z,17.40
2019-05-02T18:24:25.411Z,17.73
2019-05-02T18:26:54.836Z,16.43
2019-05-02T18:29:24.194Z,16.77
2019-05-02T18:31:53.508Z,17.67
2019-05-02T18:34:25.243Z,17.33
2019-05-02T18:36:57.410Z,17.87
2019-05-02T18:39:25.007Z,18.63
2019-05-02T18:41:55.112Z,18.73
2019-05-02T18:44:24.591Z,19.73
2019-05-02T18:46:53.964Z,19.83
2019-05-02T18:49:23.570Z,20.57
2019-05-02T18:51:57.151Z,20.10
2019-05-02T18:54:24.026Z,19.83
2019-05-02T18:56:55.325Z,20.23
2019-05-02T18:59:27.117Z,20.50
2019-05-02T19:01:57.173Z,20.50
2019-05-02T19:04:34.913Z,22.50
2019-05-02T19:06:59.221Z,22.63
2019-05-02T19:09:30.541Z,20.67
2019-05-02T19:12:05.265Z,23.43
2019-05-02T19:14:32.585Z,23.27
2019-05-02T19:17:03.589Z,22.93
2019-05-02T19:19:36.720Z,22.13
2019-05-02T19:22:07.416Z,20.33
2019-05-02T19:24:36.455Z,20.10
2019-05-02T19:27:06.674Z,18.40
2019-05-02T19:29:36.007Z,19.57
2019-05-02T19:32:08.450Z,20.27
2019-05-02T19:34:37.794Z,18.90
2019-05-02T19:37:07.158Z,19.53
2019-05-02T19:39:38.963Z,19.73
2019-05-02T19:42:12.162Z,21.55
2019-05-02T19:44:42.053Z,18.67
2019-05-02T19:47:15.758Z,17.97
2019-05-02T19:49:42.662Z,18.30
2019-05-02T19:52:13.679Z,21.10
2019-05-02T19:54:43.621Z,20.27
2019-05-02T19:57:17.148Z,18.97
2019-05-02T19:59:44.193Z,18.57
2019-05-02T20:02:13.551Z,18.53
2019-05-02T20:04:44.280Z,17.60
2019-05-02T20:07:13.817Z,17.53
2019-05-02T20:09:47.096Z,17.03
2019-05-02T20:12:15.704Z,17.63
2019-05-02T20:14:47.465Z,17.97
2019-05-02T20:17:19.995Z,18.80
2019-05-02T20:19:52.762Z,17.47
2019-05-02T20:22:22.368Z,16.43
2019-05-02T20:25:00.108Z,18.55
2019-05-02T20:27:28.531Z,17.57
2019-05-02T20:29:58.167Z,17.53
2019-05-02T20:32:27.586Z,22.17
2019-05-02T20:34:57.030Z,21.90
2019-05-02T20:37:26.420Z,21.13
2019-05-02T20:39:55.847Z,22.30
2019-05-02T20:42:25.229Z,23.57
2019-05-02T20:44:54.636Z,21.83
2019-05-02T20:47:26.151Z,21.67
2019-05-02T20:49:55.482Z,22.40
2019-05-02T20:52:24.787Z,22.37
2019-05-02T20:54:54.147Z,24.77
2019-05-02T20:57:23.454Z,22.70
2019-05-02T20:59:52.814Z,22.27
2019-05-02T21:02:22.320Z,22.00
2019-05-02T21:04:52.221Z,20.67
2019-05-02T21:07:38.657Z,20.97
2019-05-02T21:10:18.015Z,20.50
2019-05-02T21:12:47.384Z,19.50
2019-05-02T21:15:18.271Z,22.17
2019-05-02T21:17:47.777Z,19.87
2019-05-02T21:20:17.093Z,20.60
2019-05-02T21:22:46.423Z,17.80
2019-05-02T21:25:15.766Z,19.70
2019-05-02T21:27:45.156Z,17.70
2019-05-02T21:30:14.729Z,17.83
2019-05-02T21:32:44.131Z,19.37
2019-05-02T21:35:13.561Z,16.43
2019-05-02T21:37:42.917Z,16.83
2019-05-02T21:40:12.755Z,16.70
2019-05-02T21:42:42.496Z,15.00
2019-05-02T21:45:13.239Z,11.80
2019-05-02T21:47:42.707Z,13.93
2019-05-02T21:50:22.568Z,11.93
2019-05-02T21:53:10.409Z,10.40
2019-05-02T21:55:49.363Z,11.23
2019-05-02T21:58:18.696Z,11.43
2019-05-02T22:01:19.060Z,11.60
2019-05-02T22:03:48.401Z,12.30
2019-05-02T22:06:17.742Z,14.13
2019-05-02T22:08:47.091Z,12.53
2019-05-02T22:11:16.397Z,14.83
2019-05-02T22:13:45.712Z,14.63
2019-05-02T22:16:15.018Z,13.80
2019-05-02T22:18:44.300Z,12.57
2019-05-02T22:21:13.602Z,15.57
2019-05-02T22:23:42.982Z,14.23
2019-05-02T22:26:12.755Z,14.93
2019-05-02T22:28:42.310Z,14.93
2019-05-02T22:31:12.298Z,13.37
2019-05-02T22:33:44.462Z,13.10
2019-05-02T22:36:12.796Z,15.30
2019-05-02T22:39:02.066Z,14.80
2019-05-02T22:41:32.593Z,16.20
2019-05-02T22:44:02.088Z,19.00
2019-05-02T22:46:42.859Z,17.53
2019-05-02T22:49:14.631Z,18.20
2019-05-02T22:51:44.244Z,17.67
2019-05-02T22:54:24.044Z,16.03
2019-05-02T22:56:44.614Z,17.57
2019-05-02T22:59:13.897Z,17.98
2019-05-02T23:01:43.223Z,16.83
2019-05-02T23:04:12.939Z,19.53
2019-05-02T23:06:44.168Z,20.45
2019-05-02T23:09:13.361Z,21.50
2019-05-02T23:11:42.835Z,14.97
2019-05-02T23:14:12.182Z,16.10
2019-05-02T23:16:42.759Z,15.07
2019-05-02T23:19:12.532Z,14.73
2019-05-02T23:21:42.477Z,12.37
2019-05-02T23:24:18.032Z,12.40
2019-05-02T23:27:13.358Z,10.37
2019-05-02T23:29:42.801Z,10.97
2019-05-02T23:32:12.049Z,9.50
2019-05-02T23:34:41.807Z,8.93
2019-05-02T23:37:11.936Z,10.10
2019-05-02T23:39:41.761Z,9.10
2019-05-02T23:42:11.191Z,9.47
2019-05-02T23:44:42.540Z,8.87
2019-05-02T23:47:11.974Z,8.73
2019-05-02T23:49:42.722Z,8.47
2019-05-02T23:52:12.097Z,9.47
2019-05-02T23:54:49.944Z,9.00
2019-05-02T23:57:12.347Z,9.97
2019-05-02T23:59:42.445Z,8.53
